Time;durP1;ratioP1;P1;durP2;ratioP2;P2;SDS_P1;SDS_P2;PMS_P1;PMS_P2;Temp;Humidity;BMP_temperature;BMP_pressure;BME280_temperature;BME280_humidity;BME280_pressure;Samples;Min_cycle;Max_cycle;Signal;HPM_P1;HPM_P2
2022/05/02 00:00:46;;;;;;;12.53;11.23;;;;;;;14.58;53.11;97613.00;5074907;28;20198;-69
2022/05/02 00:03:12;;;;;;;12.87;11.43;;;;;;;14.58;52.99;97607.72;5077822;28;20688;-69
2022/05/02 00:05:38;;;;;;;12.77;11.30;;;;;;;14.52;53.64;97597.84;5072487;28;20771;-69
2022/05/02 00:08:04;;;;;;;13.70;12.10;;;;;;;14.53;53.78;97596.03;5074270;28;20416;-70
2022/05/02 00:10:30;;;;;;;12.53;10.17;;;;;;;14.61;53.47;97593.38;5082247;28;20462;-69
2022/05/02 00:12:56;;;;;;;15.73;11.53;;;;;;;14.61;53.16;97589.94;5072016;28;20556;-70
2022/05/02 00:15:21;;;;;;;15.00;11.93;;;;;;;14.54;53.20;97587.13;5072599;28;20193;-70
2022/05/02 00:17:59;;;;;;;13.53;12.13;;;;;;;14.54;53.32;97585.31;5072696;28;20428;-69
2022/05/02 00:20:33;;;;;;;12.70;10.87;;;;;;;14.41;53.56;97585.84;5072004;28;20210;-70
2022/05/02 00:23:01;;;;;;;11.47;10.37;;;;;;;14.34;53.57;97576.13;5072001;28;20908;-70
2022/05/02 00:25:26;;;;;;;14.67;12.63;;;;;;;14.35;53.37;97570.69;5071138;28;20439;-69
2022/05/02 00:27:52;;;;;;;12.10;10.90;;;;;;;14.25;53.76;97573.47;5064450;28;20421;-69
2022/05/02 00:30:18;;;;;;;13.47;11.77;;;;;;;14.33;53.48;97577.13;5071850;28;20289;-69
2022/05/02 00:32:44;;;;;;;14.63;12.07;;;;;;;14.22;53.65;97573.84;5077095;28;20178;-69
2022/05/02 00:35:10;;;;;;;12.20;11.00;;;;;;;14.19;53.47;97571.53;5071978;28;20227;-69
2022/05/02 00:37:37;;;;;;;12.63;11.43;;;;;;;14.15;53.65;97572.84;5071050;28;21051;-69
2022/05/02 00:40:04;;;;;;;14.87;11.47;;;;;;;14.18;53.63;97569.03;5072017;28;20766;-69
2022/05/02 00:42:29;;;;;;;14.30;11.23;;;;;;;14.21;53.53;97569.56;5071364;28;20774;-69
2022/05/02 00:44:54;;;;;;;12.53;11.20;;;;;;;14.17;53.47;97572.69;5071746;28;20535;-70
2022/05/02 00:47:20;;;;;;;12.97;11.13;;;;;;;14.01;53.39;97569.06;5071990;28;20190;-69
2022/05/02 00:49:49;;;;;;;13.73;10.93;;;;;;;13.99;53.95;97581.59;5068921;28;20238;-70
2022/05/02 00:52:15;;;;;;;11.20;10.03;;;;;;;13.90;53.75;97572.03;5071931;28;20234;-70
2022/05/02 00:54:41;;;;;;;13.23;11.43;;;;;;;13.96;53.91;97561.66;5080007;28;20425;-70
2022/05/02 00:57:07;;;;;;;12.53;11.23;;;;;;;14.07;53.70;97570.22;5072087;28;20918;-70
2022/05/02 00:59:35;;;;;;;16.23;11.77;;;;;;;14.08;53.84;97570.03;5072067;28;20452;-69
2022/05/02 01:02:01;;;;;;;12.10;10.83;;;;;;;14.09;53.65;97560.34;5076479;28;20237;-70
2022/05/02 01:04:26;;;;;;;12.33;10.90;;;;;;;14.10;53.21;97567.25;5071648;28;20483;-71
2022/05/02 01:07:19;;;;;;;15.50;11.50;;;;;;;13.91;53.27;97560.50;5071844;28;20265;-69
2022/05/02 01:09:46;;;;;;;19.30;10.17;;;;;;;13.91;53.40;97557.88;5070025;28;20198;-70
2022/05/02 01:12:15;;;;;;;11.57;10.37;;;;;;;13.77;53.68;97549.63;5070379;28;20452;-69
2022/05/02 01:14:42;;;;;;;13.30;11.90;;;;;;;13.82;53.86;97555.22;5070814;28;20779;-70
2022/05/02 01:17:08;;;;;;;13.10;11.43;;;;;;;13.77;53.98;97559.34;5071854;28;20474;-69
2022/05/02 01:19:34;;;;;;;12.07;10.87;;;;;;;13.68;54.30;97550.59;5070893;28;20425;-69
2022/05/02 01:22:00;;;;;;;13.70;11.20;;;;;;;13.77;54.03;97548.81;5071266;28;20828;-69
2022/05/02 01:24:41;;;;;;;15.87;11.63;;;;;;;13.73;54.39;97544.88;5071406;28;20223;-69
2022/05/02 01:27:08;;;;;;;12.80;10.13;;;;;;;13.78;53.97;97556.56;5073185;28;20194;-70
2022/05/02 01:29:35;;;;;;;15.50;12.10;;;;;;;13.69;54.10;97543.53;5069892;28;20432;-70
2022/05/02 01:32:02;;;;;;;11.80;10.57;;;;;;;13.66;54.14;97540.25;5075723;28;20459;-69
2022/05/02 01:34:28;;;;;;;12.97;11.67;;;;;;;13.70;54.04;97542.56;5063672;28;20800;-69
2022/05/02 01:36:55;;;;;;;12.93;11.20;;;;;;;13.72;54.25;97544.03;5070612;28;20433;-68
2022/05/02 01:39:20;;;;;;;12.70;11.40;;;;;;;13.63;53.92;97539.75;5070877;28;20186;-68
2022/05/02 01:41:46;;;;;;;12.70;10.90;;;;;;;13.69;54.47;97540.91;5070167;28;20501;-69
2022/05/02 01:44:12;;;;;;;12.57;10.60;;;;;;;13.76;54.31;97540.09;5071399;28;20220;-69
2022/05/02 01:46:38;;;;;;;12.93;11.40;;;;;;;13.79;53.96;97538.94;5077855;28;20788;-69
2022/05/02 01:49:03;;;;;;;11.90;10.70;;;;;;;13.68;54.59;97537.44;5071112;28;20182;-70
2022/05/02 01:51:29;;;;;;;12.90;11.60;;;;;;;13.76;54.45;97529.56;5069966;28;20464;-69
2022/05/02 01:53:54;;;;;;;11.77;10.57;;;;;;;13.73;54.28;97523.81;5071065;28;20653;-69
2022/05/02 01:56:20;;;;;;;13.10;11.30;;;;;;;13.65;54.62;97527.25;5070386;28;20186;-70
2022/05/02 01:58:45;;;;;;;12.67;11.33;;;;;;;13.73;54.92;97527.25;5074825;28;20214;-69
2022/05/02 02:01:11;;;;;;;18.43;11.93;;;;;;;13.73;54.46;97524.59;5077879;28;20205;-69
2022/05/02 02:03:37;;;;;;;13.77;10.90;;;;;;;13.73;54.24;97526.44;5071339;28;20191;-69
2022/05/02 02:06:03;;;;;;;13.43;12.03;;;;;;;13.76;54.58;97523.44;5070668;28;20178;-69
2022/05/02 02:08:31;;;;;;;14.10;11.20;;;;;;;13.80;54.55;97519.50;5073638;28;20428;-70
2022/05/02 02:10:58;;;;;;;14.23;12.00;;;;;;;13.77;54.91;97523.31;5070178;28;20492;-69
2022/05/02 02:13:24;;;;;;;12.70;11.40;;;;;;;13.82;54.80;97522.81;5070830;28;20904;-69
2022/05/02 02:15:49;;;;;;;12.97;11.63;;;;;;;13.90;55.04;97520.16;5077868;28;20524;-69
2022/05/02 02:18:15;;;;;;;16.27;12.50;;;;;;;13.81;55.11;97521.16;5070765;28;20261;-69
2022/05/02 02:20:46;;;;;;;18.27;12.90;;;;;;;13.79;55.41;97520.50;5064101;28;20293;-69
2022/05/02 02:23:13;;;;;;;13.33;11.73;;;;;;;13.83;55.22;97520.00;5074774;28;20201;-70
2022/05/02 02:25:39;;;;;;;14.00;12.47;;;;;;;13.88;55.13;97516.84;5070216;28;20504;-70
2022/05/02 02:28:04;;;;;;;13.80;11.10;;;;;;;13.89;55.22;97520.34;5062725;28;20984;-69
2022/05/02 02:30:30;;;;;;;14.43;12.17;;;;;;;13.78;55.23;97517.03;5068783;28;20284;-69
2022/05/02 02:33:00;;;;;;;16.60;12.40;;;;;;;13.79;55.24;97516.06;5075392;28;20260;-69
2022/05/02 02:35:26;;;;;;;12.80;11.53;;;;;;;13.81;55.20;97513.25;5069886;28;20557;-69
2022/05/02 02:37:52;;;;;;;12.50;10.90;;;;;;;13.83;55.09;97513.91;5070430;28;20462;-69
2022/05/02 02:40:18;;;;;;;14.10;11.73;;;;;;;13.80;54.79;97509.78;5069843;28;20528;-70
2022/05/02 02:42:44;;;;;;;12.37;11.00;;;;;;;13.72;54.82;97511.63;5069015;28;20187;-68
2022/05/02 02:45:09;;;;;;;12.03;10.80;;;;;;;13.66;54.88;97515.72;5068152;28;20474;-70
2022/05/02 02:47:35;;;;;;;17.23;11.93;;;;;;;13.61;55.30;97510.94;5072753;28;20417;-69
2022/05/02 02:50:00;;;;;;;13.70;12.30;;;;;;;13.64;55.74;97507.16;5074279;28;20688;-69
2022/05/02 02:52:26;;;;;;;13.57;11.50;;;;;;;13.72;55.51;97503.72;5082257;28;20190;-70
2022/05/02 02:54:51;;;;;;;15.50;12.00;;;;;;;13.71;55.46;97494.97;5072997;28;20186;-69
2022/05/02 02:57:17;;;;;;;16.90;12.63;;;;;;;13.78;55.87;97495.97;5074026;28;20549;-71
2022/05/02 02:59:43;;;;;;;17.00;12.90;;;;;;;13.78;56.03;97497.75;5074731;28;20175;-71
2022/05/02 03:02:08;;;;;;;13.07;11.67;;;;;;;13.78;55.70;97495.13;5078520;28;20661;-70
2022/05/02 03:07:18;;;;;;;16.23;12.33;;;;;;;13.71;55.62;97487.06;5082196;28;20191;-70
2022/05/02 03:09:44;;;;;;;15.63;11.53;;;;;;;13.61;55.44;97487.22;5075352;28;20963;-70
2022/05/02 03:12:09;;;;;;;13.03;11.73;;;;;;;13.66;55.91;97487.56;5073222;28;20280;-69
2022/05/02 03:14:35;;;;;;;17.50;11.80;;;;;;;13.68;55.97;97474.22;5072776;28;20194;-71
2022/05/02 03:17:00;;;;;;;14.10;12.40;;;;;;;13.72;55.47;97480.00;5074389;28;20190;-69
2022/05/02 03:19:26;;;;;;;14.87;12.17;;;;;;;13.67;56.17;97478.69;5081754;28;20240;-69
2022/05/02 03:21:52;;;;;;;17.63;12.63;;;;;;;13.75;56.02;97466.47;5073581;28;20206;-68
2022/05/02 03:24:17;;;;;;;13.20;11.90;;;;;;;13.70;56.15;97464.34;5061627;28;20186;-70
2022/05/02 03:26:43;;;;;;;13.33;11.90;;;;;;;13.76;55.87;97473.41;5069895;28;20642;-69
2022/05/02 03:29:08;;;;;;;12.80;11.50;;;;;;;13.66;56.43;97471.78;5053669;28;20361;-71
2022/05/02 03:31:33;;;;;;;12.80;11.50;;;;;;;13.59;56.43;97475.22;5060475;28;20236;-68
2022/05/02 03:33:59;;;;;;;12.10;10.90;;;;;;;13.54;56.54;97472.28;5057064;28;20247;-71
2022/05/02 03:36:24;;;;;;;13.03;11.37;;;;;;;13.55;56.35;97469.47;5072259;28;20681;-68
2022/05/02 03:38:50;;;;;;;13.03;10.83;;;;;;;13.58;56.80;97468.31;5072515;28;20323;-72
2022/05/02 03:41:16;;;;;;;14.20;12.50;;;;;;;13.54;56.30;97473.09;5070315;28;20195;-70
2022/05/02 03:43:42;;;;;;;14.00;12.10;;;;;;;13.65;56.35;97458.78;5072837;28;20633;-71
2022/05/02 03:46:08;;;;;;;13.20;11.90;;;;;;;13.68;56.62;97463.69;5071331;28;20179;-71
2022/05/02 03:48:33;;;;;;;16.63;12.50;;;;;;;13.74;56.29;97456.94;5072860;28;20422;-71
2022/05/02 03:50:59;;;;;;;14.00;12.60;;;;;;;13.70;56.42;97466.19;5072662;28;20526;-71
2022/05/02 03:53:24;;;;;;;15.73;14.00;;;;;;;13.70;56.75;97461.72;5072120;28;20182;-69
2022/05/02 03:55:50;;;;;;;18.50;13.60;;;;;;;13.75;56.68;97466.47;5076918;28;20186;-69
2022/05/02 03:58:15;;;;;;;14.20;12.50;;;;;;;13.73;56.87;97455.31;5091378;28;20619;-71
2022/05/02 04:00:41;;;;;;;15.40;13.27;;;;;;;13.78;57.21;97464.38;5065980;28;20198;-71
2022/05/02 04:03:06;;;;;;;16.00;12.43;;;;;;;13.80;57.18;97464.19;5072775;28;20732;-71
2022/05/02 04:05:32;;;;;;;14.83;12.70;;;;;;;13.83;57.23;97466.50;5071171;28;20709;-70
2022/05/02 04:07:57;;;;;;;14.20;12.70;;;;;;;13.74;57.33;97472.75;5068279;28;20182;-71
2022/05/02 04:10:23;;;;;;;14.90;12.17;;;;;;;13.76;56.88;97476.03;5074205;28;20220;-70
2022/05/02 04:12:48;;;;;;;13.70;12.23;;;;;;;13.83;56.70;97471.75;5073267;28;20515;-70
2022/05/02 04:15:14;;;;;;;14.73;13.10;;;;;;;13.87;56.72;97475.69;5072316;28;20186;-69
2022/05/02 04:17:40;;;;;;;20.00;13.10;;;;;;;13.93;56.68;97469.78;5080228;28;20255;-69
2022/05/02 04:20:07;;;;;;;13.53;11.97;;;;;;;13.90;56.57;97470.09;5070930;28;20458;-70
2022/05/02 04:22:33;;;;;;;15.37;12.60;;;;;;;13.80;56.81;97472.09;5071820;28;20771;-70
2022/05/02 04:24:59;;;;;;;15.60;12.47;;;;;;;13.57;57.89;97478.03;5072125;28;20458;-69
2022/05/02 04:27:24;;;;;;;14.90;12.10;;;;;;;13.65;57.85;97485.91;5063070;28;20877;-69
2022/05/02 04:29:50;;;;;;;14.20;12.70;;;;;;;13.81;57.46;97473.75;5064794;28;20210;-69
2022/05/02 04:32:15;;;;;;;16.67;11.50;;;;;;;13.92;57.05;97472.59;5083143;28;20543;-69
2022/05/02 04:34:41;;;;;;;14.43;12.93;;;;;;;13.97;56.78;97463.19;5063393;28;20190;-69
2022/05/02 04:37:07;;;;;;;15.27;12.70;;;;;;;13.83;57.48;97469.94;5071864;28;20202;-69
2022/05/02 04:39:33;;;;;;;14.93;13.20;;;;;;;13.95;57.41;97470.44;5077301;28;20604;-68
2022/05/02 04:41:58;;;;;;;15.37;13.20;;;;;;;14.03;57.70;97471.41;5071540;28;20515;-69
2022/05/02 04:44:24;;;;;;;18.97;13.97;;;;;;;14.01;57.79;97461.03;5065091;28;21038;-70
2022/05/02 04:46:49;;;;;;;16.47;13.07;;;;;;;14.04;57.84;97467.78;5067683;28;20286;-68
2022/05/02 04:49:15;;;;;;;15.23;13.63;;;;;;;14.17;57.68;97462.78;5068584;28;20183;-70
2022/05/02 04:51:40;;;;;;;15.43;13.80;;;;;;;14.25;57.41;97456.69;5070983;28;20291;-70
2022/05/02 04:54:06;;;;;;;15.50;13.90;;;;;;;14.33;57.00;97469.03;5071424;28;20684;-69
2022/05/02 04:56:31;;;;;;;17.50;13.47;;;;;;;14.32;56.88;97468.19;5070212;28;20197;-70
2022/05/02 04:58:57;;;;;;;14.57;13.00;;;;;;;14.28;57.33;97459.00;5071017;28;20462;-70
2022/05/02 05:01:22;;;;;;;14.10;12.57;;;;;;;14.37;57.40;97467.66;5076524;28;20208;-69
2022/05/02 05:03:48;;;;;;;14.73;13.23;;;;;;;14.33;57.41;97471.66;5066563;28;20686;-69
2022/05/02 05:06:13;;;;;;;19.33;12.97;;;;;;;14.32;57.72;97470.00;5061850;28;20190;-69
2022/05/02 05:08:40;;;;;;;15.70;12.77;;;;;;;14.37;57.40;97472.94;5076712;28;20182;-70
2022/05/02 05:11:08;;;;;;;14.90;13.20;;;;;;;14.49;57.27;97466.31;5081481;28;20280;-71
2022/05/02 05:17:00;;;;;;;14.40;12.80;;;;;;;14.55;57.20;97460.38;5063238;28;20413;-70
2022/05/02 05:19:40;;;;;;;16.30;13.83;;;;;;;14.54;57.52;97457.91;5070240;28;20420;-71
2022/05/02 05:22:20;;;;;;;15.80;13.97;;;;;;;14.56;57.21;97463.81;5060737;28;20530;-71
2022/05/02 05:24:55;;;;;;;16.13;13.43;;;;;;;14.65;57.34;97464.59;5063425;28;20502;-71
2022/05/02 05:27:33;;;;;;;16.10;13.40;;;;;;;14.70;57.26;97462.31;5061480;28;20417;-70
2022/05/02 05:30:05;;;;;;;18.87;14.23;;;;;;;14.60;57.26;97467.75;5070197;28;20829;-71
2022/05/02 05:33:08;;;;;;;15.47;13.87;;;;;;;14.63;57.31;97469.22;5064594;28;20475;-69
2022/05/02 05:35:58;;;;;;;17.33;14.23;;;;;;;14.74;56.98;97471.53;5069441;28;21017;-69
2022/05/02 05:38:52;;;;;;;15.83;14.20;;;;;;;14.82;57.29;97463.56;5069892;28;20433;-70
2022/05/02 05:41:30;;;;;;;15.93;14.30;;;;;;;14.94;57.18;97468.44;5061613;28;20441;-69
2022/05/02 05:44:28;;;;;;;15.33;13.80;;;;;;;15.02;57.25;97465.75;5070001;28;20427;-69
2022/05/02 05:47:12;;;;;;;17.87;16.07;;;;;;;15.14;56.75;97460.91;5063325;28;20468;-69
2022/05/02 05:49:50;;;;;;;16.03;14.23;;;;;;;15.18;56.86;97470.13;5071660;28;20416;-68
2022/05/02 05:52:44;;;;;;;49.87;19.40;;;;;;;15.19;56.66;97462.03;5069683;28;20452;-69
2022/05/02 05:55:22;;;;;;;41.47;19.63;;;;;;;15.26;56.78;97461.31;5065162;28;20420;-69
2022/05/02 05:58:05;;;;;;;35.53;18.67;;;;;;;15.35;56.66;97460.28;5063597;28;20468;-69
2022/05/02 06:00:34;;;;;;;30.53;17.57;;;;;;;15.50;56.43;97458.47;5071187;28;20445;-68
2022/05/02 06:03:08;;;;;;;25.30;18.93;;;;;;;15.66;56.17;97465.47;5053972;28;20441;-68
2022/05/02 06:05:41;;;;;;;30.00;19.17;;;;;;;15.88;55.41;97463.00;5069365;28;20519;-68
2022/05/02 06:08:19;;;;;;;21.77;18.67;;;;;;;15.96;54.74;97464.75;5072858;28;20428;-71
2022/05/02 06:10:46;;;;;;;36.93;18.70;;;;;;;16.12;53.93;97469.88;5062382;28;21070;-69
2022/05/02 06:13:15;;;;;;;20.00;17.90;;;;;;;16.24;53.74;97469.41;5070697;28;20502;-69
2022/05/02 06:18:31;;;;;;;22.20;18.30;;;;;;;16.47;53.37;97464.00;5066049;28;20437;-68
2022/05/02 06:21:02;;;;;;;20.13;18.10;;;;;;;16.58;52.95;97468.03;5058989;28;20478;-68
2022/05/02 06:23:32;;;;;;;25.03;19.57;;;;;;;16.67;51.85;97468.75;5065817;28;20519;-70
2022/05/02 06:25:57;;;;;;;21.07;18.70;;;;;;;16.78;52.44;97465.63;5074809;28;20442;-69
2022/05/02 06:28:31;;;;;;;24.00;20.23;;;;;;;16.95;51.80;97462.81;5065892;28;20425;-70
2022/05/02 06:31:00;;;;;;;20.10;17.47;;;;;;;17.09;51.14;97456.63;5075072;28;20240;-69
2022/05/02 06:33:26;;;;;;;22.33;19.70;;;;;;;17.40;50.67;97458.16;5076703;28;20425;-68
2022/05/02 06:36:16;;;;;;;19.83;17.73;;;;;;;17.62;50.22;97458.13;5072617;28;20443;-69
2022/05/02 06:38:55;;;;;;;19.00;17.00;;;;;;;17.72;49.67;97463.09;5084892;28;20511;-70
2022/05/02 06:41:53;;;;;;;20.30;18.10;;;;;;;17.81;49.58;97454.00;5065692;28;21125;-69
2022/05/02 06:44:31;;;;;;;19.67;17.67;;;;;;;17.92;49.22;97456.13;5077014;28;20514;-69
2022/05/02 06:47:04;;;;;;;25.80;18.03;;;;;;;18.03;48.67;97468.06;5074339;28;20416;-70
2022/05/02 06:49:32;;;;;;;21.03;17.20;;;;;;;18.16;48.14;97456.72;5070438;28;20958;-69
2022/05/02 06:51:58;;;;;;;18.80;16.60;;;;;;;18.27;48.25;97461.47;5070827;28;20456;-70
2022/05/02 06:54:57;;;;;;;24.03;18.63;;;;;;;18.36;47.20;97458.66;5058836;28;20425;-70
2022/05/02 06:57:32;;;;;;;18.27;16.37;;;;;;;18.43;47.40;97462.16;5073945;28;20783;-70
2022/05/02 07:00:02;;;;;;;20.30;17.80;;;;;;;18.46;47.10;97461.78;5071066;28;20425;-70
2022/05/02 07:02:43;;;;;;;19.17;17.13;;;;;;;18.60;47.73;97452.03;5067486;28;20537;-70
2022/05/02 07:05:25;;;;;;;21.00;17.03;;;;;;;18.78;47.13;97453.34;5074243;28;20424;-70
2022/05/02 07:08:05;;;;;;;22.47;17.83;;;;;;;18.91;46.78;97458.69;5082011;28;20491;-69
2022/05/02 07:10:38;;;;;;;19.70;17.07;;;;;;;18.97;45.85;97463.22;5074571;28;20472;-69
2022/05/02 07:13:39;;;;;;;19.73;17.40;;;;;;;19.12;45.91;97459.59;5073834;28;20440;-70
2022/05/02 07:16:17;;;;;;;18.43;16.50;;;;;;;19.26;45.81;97455.13;5086597;28;20457;-70
2022/05/02 07:18:53;;;;;;;21.93;17.53;;;;;;;19.35;45.08;97459.22;5083278;28;20422;-70
2022/05/02 07:21:38;;;;;;;19.23;17.33;;;;;;;19.45;45.79;97449.03;5080652;28;20545;-70
2022/05/02 07:24:14;;;;;;;18.40;16.60;;;;;;;19.47;45.03;97459.44;5076613;28;20433;-69
2022/05/02 07:26:41;;;;;;;18.50;16.60;;;;;;;19.64;44.95;97463.34;5079143;28;20421;-70
2022/05/02 07:29:08;;;;;;;18.40;16.60;;;;;;;19.80;45.07;97459.44;5081251;28;20439;-69
2022/05/02 07:31:34;;;;;;;18.53;16.57;;;;;;;19.94;44.42;97462.13;5094121;28;20470;-69
2022/05/02 07:34:01;;;;;;;19.00;16.00;;;;;;;20.08;44.25;97462.94;5087805;28;20541;-69
2022/05/02 07:36:28;;;;;;;19.80;16.87;;;;;;;20.19;43.61;97461.47;5099329;28;20839;-70
2022/05/02 07:39:15;;;;;;;18.77;16.73;;;;;;;20.31;43.58;97457.16;5090847;28;20464;-69
2022/05/02 07:41:41;;;;;;;19.20;16.07;;;;;;;20.47;43.81;97458.56;5074867;28;20470;-70
2022/05/02 07:44:09;;;;;;;21.87;17.63;;;;;;;20.62;43.25;97466.28;5086496;28;20527;-69
2022/05/02 07:46:43;;;;;;;22.73;16.50;;;;;;;20.54;42.93;97459.34;5091493;28;20434;-69
2022/05/02 07:49:10;;;;;;;20.90;18.63;;;;;;;20.51;42.58;97456.28;5090839;28;21078;-70
2022/05/02 07:51:43;;;;;;;17.73;15.93;;;;;;;20.65;41.76;97457.03;5074504;28;21318;-71
2022/05/02 07:54:15;;;;;;;21.90;17.13;;;;;;;20.83;42.33;97449.22;5073327;28;20512;-70
2022/05/02 07:56:41;;;;;;;20.20;16.30;;;;;;;20.91;42.43;97458.00;5071668;28;20953;-71
2022/05/02 07:59:07;;;;;;;19.17;17.17;;;;;;;20.80;42.33;97454.97;5072796;28;20433;-69
2022/05/02 08:01:32;;;;;;;28.30;18.40;;;;;;;20.50;42.39;97457.31;5077390;28;20432;-69
2022/05/02 08:03:58;;;;;;;26.50;18.67;;;;;;;20.39;42.71;97469.41;5038773;28;20178;-70
2022/05/02 08:06:44;;;;;;;22.20;16.67;;;;;;;20.50;43.15;97465.31;5072328;28;20703;-69
2022/05/02 08:09:16;;;;;;;19.30;17.17;;;;;;;20.54;43.06;97462.00;5075743;28;20261;-70
2022/05/02 08:12:07;;;;;;;20.90;17.70;;;;;;;20.46;42.58;97458.75;5068307;28;20484;-69
2022/05/02 08:14:38;;;;;;;21.53;16.40;;;;;;;20.56;42.88;97467.09;5058583;28;20450;-70
2022/05/02 08:17:18;;;;;;;19.80;17.20;;;;;;;20.71;43.35;97456.22;5061549;28;20480;-70
2022/05/02 08:19:53;;;;;;;20.47;15.70;;;;;;;20.92;42.71;97455.09;5064231;28;20456;-70
2022/05/02 08:28:18;;;;;;;27.43;15.73;;;;;;;20.76;42.09;97458.28;5066295;28;20452;-70
2022/05/02 08:31:02;;;;;;;17.60;15.70;;;;;;;20.82;41.55;97452.09;5053437;28;20479;-71
2022/05/02 08:33:29;;;;;;;20.23;15.40;;;;;;;20.82;41.84;97452.09;5067736;28;20591;-69
2022/05/02 08:35:58;;;;;;;20.40;16.20;;;;;;;20.85;41.88;97449.00;5078328;28;20437;-69
2022/05/02 08:38:49;;;;;;;19.30;15.93;;;;;;;21.07;42.09;97449.50;5070909;28;20531;-70
2022/05/02 08:41:34;;;;;;;20.87;14.67;;;;;;;21.22;41.05;97445.75;5066731;28;20452;-69
2022/05/02 08:44:36;;;;;;;18.17;16.27;;;;;;;21.29;40.32;97446.50;5069104;28;20465;-70
2022/05/02 08:47:02;;;;;;;17.00;15.33;;;;;;;21.23;39.61;97442.03;5065904;28;20417;-70
2022/05/02 08:49:42;;;;;;;16.90;14.80;;;;;;;21.10;39.82;97443.75;5072650;28;20421;-70
2022/05/02 08:52:32;;;;;;;17.00;14.07;;;;;;;21.49;39.44;97435.69;5079338;28;20343;-70
2022/05/02 08:55:35;;;;;;;15.10;13.43;;;;;;;21.74;38.72;97435.72;5066284;28;20776;-69
2022/05/02 08:58:12;;;;;;;17.20;14.30;;;;;;;21.68;38.84;97444.59;5071994;28;20499;-70
2022/05/02 09:01:15;;;;;;;18.33;16.33;;;;;;;21.41;38.25;97435.97;5071427;28;20447;-69
2022/05/02 09:03:46;;;;;;;18.13;14.93;;;;;;;21.30;39.42;97448.94;5079769;28;20924;-70
2022/05/02 09:06:40;;;;;;;14.93;13.10;;;;;;;21.63;38.43;97439.94;5075678;28;20453;-70
2022/05/02 09:09:37;;;;;;;20.97;14.70;;;;;;;21.62;38.02;97435.63;5068834;28;20947;-70
2022/05/02 09:12:05;;;;;;;15.43;13.83;;;;;;;21.98;37.94;97432.44;5071585;28;20460;-70
2022/05/02 09:15:04;;;;;;;14.73;13.00;;;;;;;22.37;37.55;97436.53;5071682;28;20429;-70
2022/05/02 09:17:29;;;;;;;15.67;14.00;;;;;;;22.59;36.78;97435.28;5071201;28;20431;-69
2022/05/02 09:20:25;;;;;;;14.70;12.43;;;;;;;22.71;35.69;97441.50;5071230;28;20417;-69
2022/05/02 09:31:35;;;;;;;8.87;8.00;;;;;;;23.85;31.33;97434.53;4993991;28;20470;-69
2022/05/02 09:34:12;;;;;;;9.53;8.03;;;;;;;23.77;32.04;97424.97;5006283;28;20450;-69
2022/05/02 09:36:59;;;;;;;9.43;8.53;;;;;;;24.27;32.31;97417.53;5010480;28;20771;-70
2022/05/02 09:39:31;;;;;;;9.60;8.70;;;;;;;24.53;33.19;97428.75;4994146;28;20431;-70
2022/05/02 09:42:14;;;;;;;12.97;11.67;;;;;;;24.24;32.91;97431.38;4989619;28;20446;-70
2022/05/02 09:51:32;;;;;;;9.33;8.50;;;;;;;23.88;33.05;97430.56;5005103;28;21193;-70
2022/05/02 09:56:37;;;;;;;9.80;8.90;;;;;;;23.54;32.50;97422.28;4994184;28;20507;-70
2022/05/02 09:57:13;;;;;;;8.30;7.60;;;;;;;23.16;31.82;97421.59;5007399;28;20510;-70
2022/05/02 09:59:43;;;;;;;7.00;6.40;;;;;;;23.01;32.38;97419.34;4992068;28;20435;-70
2022/05/02 10:02:21;;;;;;;9.23;7.47;;;;;;;23.30;32.92;97422.25;5010315;28;20439;-70
2022/05/02 10:05:06;;;;;;;10.87;7.97;;;;;;;23.26;32.63;97418.41;5011169;28;20418;-70
2022/05/02 10:07:38;;;;;;;7.80;7.10;;;;;;;23.27;32.64;97417.34;5005374;28;20453;-69
2022/05/02 10:10:06;;;;;;;9.27;7.60;;;;;;;23.20;32.62;97406.75;4992984;28;20462;-70
2022/05/02 10:12:47;;;;;;;9.63;8.40;;;;;;;22.67;33.15;97410.97;4993714;28;21007;-69
2022/05/02 10:15:26;;;;;;;9.50;8.60;;;;;;;22.47;33.90;97409.34;5009713;28;20447;-70
2022/05/02 10:18:10;;;;;;;10.00;9.00;;;;;;;22.80;33.70;97405.44;5010711;28;20478;-70
2022/05/02 10:20:41;;;;;;;9.50;7.83;;;;;;;23.09;33.58;97394.94;5010964;28;20455;-70
2022/05/02 10:23:28;;;;;;;8.87;7.97;;;;;;;23.60;33.29;97392.75;5009531;28;20497;-70
2022/05/02 10:26:06;;;;;;;11.40;8.30;;;;;;;24.19;32.33;97396.47;4988792;28;20442;-70
2022/05/02 10:29:06;;;;;;;8.57;7.87;;;;;;;24.43;30.21;97397.22;5008680;28;20458;-69
2022/05/02 10:31:35;;;;;;;9.10;8.20;;;;;;;24.54;30.09;97396.38;5002974;28;20466;-69
2022/05/02 10:34:02;;;;;;;7.57;6.87;;;;;;;24.59;29.30;97397.53;5010314;28;20438;-70
2022/05/02 10:36:30;;;;;;;10.57;8.20;;;;;;;24.33;29.89;97397.03;5010566;28;20428;-69
2022/05/02 10:39:04;;;;;;;11.80;7.30;;;;;;;24.14;30.35;97397.16;4993336;28;20961;-69
2022/05/02 10:41:46;;;;;;;8.57;7.53;;;;;;;23.88;31.09;97396.56;5002818;28;20549;-70
2022/05/02 10:44:17;;;;;;;8.10;6.47;;;;;;;23.80;30.74;97383.56;5010462;28;20471;-70
2022/05/02 10:46:46;;;;;;;8.60;7.80;;;;;;;23.68;31.30;97383.56;4992227;28;20998;-70
2022/05/02 10:49:39;;;;;;;8.20;7.40;;;;;;;23.62;31.82;97384.50;5013456;28;20434;-70
2022/05/02 10:52:15;;;;;;;7.23;6.50;;;;;;;23.60;31.30;97373.19;5012345;28;20454;-69
2022/05/02 10:54:46;;;;;;;8.87;6.00;;;;;;;24.14;31.24;97382.97;5010930;28;20465;-70
2022/05/02 10:57:20;;;;;;;6.97;6.40;;;;;;;24.56;29.84;97374.72;4992223;28;20833;-71
2022/05/02 10:59:49;;;;;;;7.37;6.67;;;;;;;24.62;29.69;97378.31;4992342;28;20431;-70
2022/05/02 11:02:24;;;;;;;5.73;5.23;;;;;;;24.61;29.57;97377.47;5009886;28;20435;-70
2022/05/02 11:05:09;;;;;;;7.73;6.90;;;;;;;24.61;29.22;97376.69;4993063;28;20430;-70
2022/05/02 11:07:53;;;;;;;8.60;7.80;;;;;;;24.82;29.34;97375.22;5006300;28;20477;-70
2022/05/02 11:10:29;;;;;;;7.60;6.90;;;;;;;24.98;29.67;97371.75;5014264;28;20531;-70
2022/05/02 11:13:11;;;;;;;6.83;5.83;;;;;;;25.21;28.63;97364.63;5014229;28;20438;-69
2022/05/02 11:15:51;;;;;;;6.73;6.13;;;;;;;24.90;27.93;97369.47;4993119;28;20470;-70
2022/05/02 11:21:35;;;;;;;7.10;6.43;;;;;;;24.43;29.21;97362.41;5013585;28;20839;-70
2022/05/02 11:24:03;;;;;;;8.17;7.40;;;;;;;24.48;28.57;97359.00;5012779;28;20902;-69
2022/05/02 11:26:45;;;;;;;6.37;5.77;;;;;;;24.84;29.31;97351.66;5013567;28;20475;-70
2022/05/02 11:29:23;;;;;;;8.20;6.10;;;;;;;24.79;28.51;97348.91;4995904;28;20434;-70
2022/05/02 11:32:02;;;;;;;7.23;6.53;;;;;;;24.76;28.12;97344.81;4995718;28;20474;-69
2022/05/02 11:34:57;;;;;;;6.80;5.70;;;;;;;24.65;28.67;97346.50;5003527;28;20439;-70
2022/05/02 11:37:41;;;;;;;6.63;6.03;;;;;;;24.63;28.42;97347.78;4995727;28;20497;-70
2022/05/02 11:40:09;;;;;;;6.23;5.73;;;;;;;24.54;29.03;97347.34;5013695;28;20419;-69
2022/05/02 11:42:40;;;;;;;5.50;5.00;;;;;;;24.72;29.02;97345.53;5013847;28;20518;-69
2022/05/02 11:45:10;;;;;;;6.10;5.17;;;;;;;24.75;28.81;97345.06;5013247;28;20420;-70
2022/05/02 11:48:08;;;;;;;5.60;5.00;;;;;;;24.92;29.05;97340.56;5013561;28;20471;-69
2022/05/02 11:50:42;;;;;;;5.60;5.13;;;;;;;25.22;28.85;97344.00;5007107;28;20486;-70
2022/05/02 11:53:10;;;;;;;5.27;4.80;;;;;;;25.07;28.65;97334.66;4995908;28;20431;-69
2022/05/02 11:55:36;;;;;;;6.53;5.90;;;;;;;24.86;28.64;97346.09;5013542;28;20424;-69
2022/05/02 11:58:23;;;;;;;6.43;5.93;;;;;;;24.45;28.97;97338.88;5012684;28;20447;-70
2022/05/02 12:00:52;;;;;;;6.00;5.50;;;;;;;24.31;29.58;97345.56;4996107;28;20181;-69
2022/05/02 12:03:25;;;;;;;6.10;5.50;;;;;;;24.19;29.64;97346.41;4963244;28;20470;-69
2022/05/02 12:05:55;;;;;;;6.13;5.57;;;;;;;24.25;29.56;97343.84;4979692;28;20438;-70
2022/05/02 12:08:32;;;;;;;6.07;5.47;;;;;;;24.45;29.52;97338.06;4978569;28;20443;-70
2022/05/02 12:11:07;;;;;;;6.63;6.13;;;;;;;24.75;28.89;97332.50;4995844;28;20474;-71
2022/05/02 12:13:38;;;;;;;6.60;6.10;;;;;;;24.94;27.77;97332.28;5012988;28;20438;-70
2022/05/02 12:16:08;;;;;;;8.17;5.07;;;;;;;25.04;28.20;97328.97;5012774;28;20875;-70